sensor_id;sensor_type;location;lat;lon;timestamp;pressure;altitude;pressure_sealevel;temperature;humidity
82171;BME280;71755;48.038;14.346;2024-03-25T00:01:35;96545.41;;;2.90;97.21
82171;BME280;71755;48.038;14.346;2024-03-25T00:04:01;96548.34;;;2.81;98.73
82171;BME280;71755;48.038;14.346;2024-03-25T00:06:27;96540.44;;;2.81;98.65
82171;BME280;71755;48.038;14.346;2024-03-25T00:08:53;96541.44;;;2.80;99.32
82171;BME280;71755;48.038;14.346;2024-03-25T00:11:19;96543.66;;;2.83;99.34
82171;BME280;71755;48.038;14.346;2024-03-25T00:13:45;96540.13;;;2.90;98.65
82171;BME280;71755;48.038;14.346;2024-03-25T00:16:12;96523.03;;;2.92;98.85
82171;BME280;71755;48.038;14.346;2024-03-25T00:18:37;96524.06;;;2.91;98.67
82171;BME280;71755;48.038;14.346;2024-03-25T00:21:03;96527.97;;;2.89;99.13
82171;BME280;71755;48.038;14.346;2024-03-25T00:23:30;96521.88;;;2.88;99.25
82171;BME280;71755;48.038;14.346;2024-03-25T00:25:55;96533.31;;;3.00;97.30
82171;BME280;71755;48.038;14.346;2024-03-25T00:28:22;96527.06;;;2.95;98.50
82171;BME280;71755;48.038;14.346;2024-03-25T00:30:48;96534.75;;;2.96;98.01
82171;BME280;71755;48.038;14.346;2024-03-25T00:33:15;96561.69;;;3.05;96.94
82171;BME280;71755;48.038;14.346;2024-03-25T00:35:43;96539.69;;;3.11;96.14
82171;BME280;71755;48.038;14.346;2024-03-25T00:38:12;96529.56;;;3.08;96.34
82171;BME280;71755;48.038;14.346;2024-03-25T00:40:38;96533.47;;;3.05;97.07
82171;BME280;71755;48.038;14.346;2024-03-25T00:43:04;96538.97;;;3.04;97.30
82171;BME280;71755;48.038;14.346;2024-03-25T00:45:30;96541.59;;;3.04;97.51
82171;BME280;71755;48.038;14.346;2024-03-25T00:47:57;96538.81;;;2.99;97.52
82171;BME280;71755;48.038;14.346;2024-03-25T00:50:25;96540.84;;;2.97;97.94
82171;BME280;71755;48.038;14.346;2024-03-25T00:52:52;96541.50;;;2.92;99.08
82171;BME280;71755;48.038;14.346;2024-03-25T00:55:17;96524.66;;;2.93;98.79
82171;BME280;71755;48.038;14.346;2024-03-25T00:57:45;96544.50;;;2.96;97.63
82171;BME280;71755;48.038;14.346;2024-03-25T01:00:11;96534.03;;;2.89;99.01
82171;BME280;71755;48.038;14.346;2024-03-25T01:02:37;96534.47;;;2.86;99.00
82171;BME280;71755;48.038;14.346;2024-03-25T01:05:04;96537.56;;;2.83;98.80
82171;BME280;71755;48.038;14.346;2024-03-25T01:07:31;96533.19;;;2.77;99.19
82171;BME280;71755;48.038;14.346;2024-03-25T01:09:57;96540.94;;;2.72;100.00
82171;BME280;71755;48.038;14.346;2024-03-25T01:12:25;96534.75;;;2.60;100.00
82171;BME280;71755;48.038;14.346;2024-03-25T01:14:51;96536.88;;;2.51;100.00
82171;BME280;71755;48.038;14.346;2024-03-25T01:17:17;96530.44;;;2.47;100.00
82171;BME280;71755;48.038;14.346;2024-03-25T01:19:43;96531.97;;;2.36;100.00
82171;BME280;71755;48.038;14.346;2024-03-25T01:22:09;96541.56;;;2.31;100.00
82171;BME280;71755;48.038;14.346;2024-03-25T01:24:35;96534.31;;;2.26;100.00
82171;BME280;71755;48.038;14.346;2024-03-25T01:27:01;96537.63;;;2.15;100.00
82171;BME280;71755;48.038;14.346;2024-03-25T01:29:27;96530.00;;;2.07;100.00
82171;BME280;71755;48.038;14.346;2024-03-25T01:31:52;96544.03;;;2.01;100.00
82171;BME280;71755;48.038;14.346;2024-03-25T01:34:19;96533.28;;;2.02;100.00
82171;BME280;71755;48.038;14.346;2024-03-25T01:36:44;96543.41;;;2.05;100.00
82171;BME280;71755;48.038;14.346;2024-03-25T01:39:10;96536.28;;;2.06;100.00
82171;BME280;71755;48.038;14.346;2024-03-25T01:41:36;96539.53;;;2.08;100.00
82171;BME280;71755;48.038;14.346;2024-03-25T01:44:02;96527.16;;;2.08;100.00
82171;BME280;71755;48.038;14.346;2024-03-25T01:46:28;96534.47;;;2.06;100.00
82171;BME280;71755;48.038;14.346;2024-03-25T01:48:55;96529.56;;;2.10;100.00
82171;BME280;71755;48.038;14.346;2024-03-25T01:51:24;96535.06;;;2.08;100.00
82171;BME280;71755;48.038;14.346;2024-03-25T01:53:52;96528.78;;;2.09;100.00
82171;BME280;71755;48.038;14.346;2024-03-25T01:56:19;96529.56;;;2.10;100.00
82171;BME280;71755;48.038;14.346;2024-03-25T01:58:48;96527.31;;;2.13;100.00
82171;BME280;71755;48.038;14.346;2024-03-25T02:01:14;96516.31;;;2.23;100.00
82171;BME280;71755;48.038;14.346;2024-03-25T02:03:42;96522.53;;;2.29;100.00
82171;BME280;71755;48.038;14.346;2024-03-25T02:06:15;96513.97;;;2.33;100.00
82171;BME280;71755;48.038;14.346;2024-03-25T02:08:41;96516.75;;;2.38;100.00
82171;BME280;71755;48.038;14.346;2024-03-25T02:11:09;96518.94;;;2.41;100.00
82171;BME280;71755;48.038;14.346;2024-03-25T02:13:37;96510.81;;;2.43;100.00
82171;BME280;71755;48.038;14.346;2024-03-25T02:16:03;96509.56;;;2.45;100.00
82171;BME280;71755;48.038;14.346;2024-03-25T02:18:30;96509.34;;;2.47;100.00
82171;BME280;71755;48.038;14.346;2024-03-25T02:20:57;96510.97;;;2.48;99.92
82171;BME280;71755;48.038;14.346;2024-03-25T02:23:24;96508.47;;;2.53;100.00
82171;BME280;71755;48.038;14.346;2024-03-25T02:25:51;96505.19;;;2.58;99.75
82171;BME280;71755;48.038;14.346;2024-03-25T02:28:17;96506.78;;;2.59;99.43
82171;BME280;71755;48.038;14.346;2024-03-25T02:30:43;96499.06;;;2.64;99.01
82171;BME280;71755;48.038;14.346;2024-03-25T02:33:09;96503.44;;;2.70;98.25
82171;BME280;71755;48.038;14.346;2024-03-25T02:35:35;96497.16;;;2.71;98.23
82171;BME280;71755;48.038;14.346;2024-03-25T02:38:02;96497.28;;;2.76;97.76
82171;BME280;71755;48.038;14.346;2024-03-25T02:40:29;96496.41;;;2.82;97.15
82171;BME280;71755;48.038;14.346;2024-03-25T02:42:56;96504.66;;;2.86;96.78
82171;BME280;71755;48.038;14.346;2024-03-25T02:45:21;96497.47;;;2.93;95.70
82171;BME280;71755;48.038;14.346;2024-03-25T02:47:47;96498.06;;;2.95;96.01
82171;BME280;71755;48.038;14.346;2024-03-25T02:50:14;96504.72;;;2.97;95.74
82171;BME280;71755;48.038;14.346;2024-03-25T02:52:39;96501.44;;;3.02;95.35
82171;BME280;71755;48.038;14.346;2024-03-25T02:55:05;96495.72;;;3.05;94.96
82171;BME280;71755;48.038;14.346;2024-03-25T02:57:31;96500.47;;;3.14;94.20
82171;BME280;71755;48.038;14.346;2024-03-25T02:59:57;96498.41;;;3.17;93.42
82171;BME280;71755;48.038;14.346;2024-03-25T03:02:23;96504.38;;;3.24;92.48
82171;BME280;71755;48.038;14.346;2024-03-25T03:04:49;96521.84;;;3.25;92.80
82171;BME280;71755;48.038;14.346;2024-03-25T03:07:15;96507.59;;;3.26;92.79
82171;BME280;71755;48.038;14.346;2024-03-25T03:09:40;96512.88;;;3.26;92.87
82171;BME280;71755;48.038;14.346;2024-03-25T03:12:06;96502.22;;;3.32;92.27
82171;BME280;71755;48.038;14.346;2024-03-25T03:14:33;96515.81;;;3.36;91.57
82171;BME280;71755;48.038;14.346;2024-03-25T03:16:58;96520.88;;;3.37;91.34
82171;BME280;71755;48.038;14.346;2024-03-25T03:19:27;96518.59;;;3.41;90.94
82171;BME280;71755;48.038;14.346;2024-03-25T03:21:54;96500.22;;;3.46;90.01
82171;BME280;71755;48.038;14.346;2024-03-25T03:24:20;96504.94;;;3.44;90.31
82171;BME280;71755;48.038;14.346;2024-03-25T03:26:46;96512.50;;;3.40;90.61
82171;BME280;71755;48.038;14.346;2024-03-25T03:29:12;96512.84;;;3.44;90.42
82171;BME280;71755;48.038;14.346;2024-03-25T03:31:37;96511.25;;;3.43;90.05
82171;BME280;71755;48.038;14.346;2024-03-25T03:34:03;96528.81;;;3.49;89.87
82171;BME280;71755;48.038;14.346;2024-03-25T03:36:29;96521.03;;;3.54;89.30
82171;BME280;71755;48.038;14.346;2024-03-25T03:38:54;96521.94;;;3.48;89.94
82171;BME280;71755;48.038;14.346;2024-03-25T03:41:20;96524.25;;;3.56;88.71
82171;BME280;71755;48.038;14.346;2024-03-25T03:43:46;96517.34;;;3.55;89.26
82171;BME280;71755;48.038;14.346;2024-03-25T03:46:12;96517.22;;;3.50;90.30
82171;BME280;71755;48.038;14.346;2024-03-25T03:48:38;96521.03;;;3.54;89.38
82171;BME280;71755;48.038;14.346;2024-03-25T03:51:07;96516.56;;;3.55;89.31
82171;BME280;71755;48.038;14.346;2024-03-25T03:53:34;96529.53;;;3.56;88.37
82171;BME280;71755;48.038;14.346;2024-03-25T03:56:14;96523.78;;;3.59;88.95
82171;BME280;71755;48.038;14.346;2024-03-25T03:58:41;96520.44;;;3.52;88.90
82171;BME280;71755;48.038;14.346;2024-03-25T04:01:14;96519.06;;;3.50;89.50
82171;BME280;71755;48.038;14.346;2024-03-25T04:03:41;96531.00;;;3.52;88.80
82171;BME280;71755;48.038;14.346;2024-03-25T04:06:11;96534.59;;;3.58;88.15
82171;BME280;71755;48.038;14.346;2024-03-25T04:08:38;96538.47;;;3.55;88.30
82171;BME280;71755;48.038;14.346;2024-03-25T04:11:05;96540.53;;;3.53;89.23
82171;BME280;71755;48.038;14.346;2024-03-25T04:13:35;96536.88;;;3.54;89.43
82171;BME280;71755;48.038;14.346;2024-03-25T04:16:05;96550.66;;;3.56;89.02
82171;BME280;71755;48.038;14.346;2024-03-25T04:18:32;96549.50;;;3.52;89.88
82171;BME280;71755;48.038;14.346;2024-03-25T04:20:58;96557.78;;;3.56;88.98
82171;BME280;71755;48.038;14.346;2024-03-25T04:23:25;96546.53;;;3.60;88.11
82171;BME280;71755;48.038;14.346;2024-03-25T04:25:51;96551.47;;;3.57;89.27
82171;BME280;71755;48.038;14.346;2024-03-25T04:28:17;96554.34;;;3.67;88.46
82171;BME280;71755;48.038;14.346;2024-03-25T04:30:43;96569.63;;;3.65;88.03
82171;BME280;71755;48.038;14.346;2024-03-25T04:33:09;96570.44;;;3.65;87.97
82171;BME280;71755;48.038;14.346;2024-03-25T04:35:35;96569.50;;;3.60;89.33
82171;BME280;71755;48.038;14.346;2024-03-25T04:38:01;96576.06;;;3.69;88.49
82171;BME280;71755;48.038;14.346;2024-03-25T04:40:27;96568.59;;;3.66;88.44
82171;BME280;71755;48.038;14.346;2024-03-25T04:42:53;96577.25;;;3.73;87.66
82171;BME280;71755;48.038;14.346;2024-03-25T04:45:19;96576.00;;;3.75;87.40
82171;BME280;71755;48.038;14.346;2024-03-25T04:47:44;96581.34;;;3.69;88.09
82171;BME280;71755;48.038;14.346;2024-03-25T04:50:10;96580.31;;;3.70;88.69
82171;BME280;71755;48.038;14.346;2024-03-25T04:52:36;96577.09;;;3.68;87.97
82171;BME280;71755;48.038;14.346;2024-03-25T04:55:02;96601.22;;;3.71;87.38
82171;BME280;71755;48.038;14.346;2024-03-25T04:57:28;96575.25;;;3.68;88.52
82171;BME280;71755;48.038;14.346;2024-03-25T04:59:54;96579.38;;;3.64;88.75
82171;BME280;71755;48.038;14.346;2024-03-25T05:02:20;96582.59;;;3.66;88.50
82171;BME280;71755;48.038;14.346;2024-03-25T05:04:46;96582.16;;;3.69;88.48
82171;BME280;71755;48.038;14.346;2024-03-25T05:07:11;96586.63;;;3.69;88.05
82171;BME280;71755;48.038;14.346;2024-03-25T05:09:37;96606.94;;;3.68;87.59
82171;BME280;71755;48.038;14.346;2024-03-25T05:12:03;96589.84;;;3.71;88.45
82171;BME280;71755;48.038;14.346;2024-03-25T05:14:30;96592.28;;;3.72;88.00
82171;BME280;71755;48.038;14.346;2024-03-25T05:16:55;96587.66;;;3.68;88.22
82171;BME280;71755;48.038;14.346;2024-03-25T05:19:22;96601.22;;;3.71;87.48
82171;BME280;71755;48.038;14.346;2024-03-25T05:21:48;96592.94;;;3.68;88.62
82171;BME280;71755;48.038;14.346;2024-03-25T05:24:14;96593.28;;;3.71;87.27
82171;BME280;71755;48.038;14.346;2024-03-25T05:26:40;96601.03;;;3.73;87.24
82171;BME280;71755;48.038;14.346;2024-03-25T05:29:05;96595.63;;;3.80;86.86
82171;BME280;71755;48.038;14.346;2024-03-25T05:31:32;96618.75;;;3.84;85.96
82171;BME280;71755;48.038;14.346;2024-03-25T05:33:58;96600.34;;;3.78;86.64
82171;BME280;71755;48.038;14.346;2024-03-25T05:36:26;96592.19;;;3.79;86.05
82171;BME280;71755;48.038;14.346;2024-03-25T05:38:52;96598.28;;;3.80;86.56
82171;BME280;71755;48.038;14.346;2024-03-25T05:41:18;96597.03;;;3.82;86.34
82171;BME280;71755;48.038;14.346;2024-03-25T05:43:44;96598.72;;;3.76;87.13
82171;BME280;71755;48.038;14.346;2024-03-25T05:46:09;96593.00;;;3.80;86.82
82171;BME280;71755;48.038;14.346;2024-03-25T05:48:35;96621.03;;;3.81;86.76
82171;BME280;71755;48.038;14.346;2024-03-25T05:53:28;96601.41;;;3.88;85.45
82171;BME280;71755;48.038;14.346;2024-03-25T05:55:55;96602.56;;;3.92;85.90
82171;BME280;71755;48.038;14.346;2024-03-25T05:58:21;96607.63;;;3.94;85.59
82171;BME280;71755;48.038;14.346;2024-03-25T06:00:48;96599.25;;;3.97;85.62
82171;BME280;71755;48.038;14.346;2024-03-25T06:03:15;96610.03;;;3.95;86.11
82171;BME280;71755;48.038;14.346;2024-03-25T06:05:41;96609.34;;;4.00;85.42
82171;BME280;71755;48.038;14.346;2024-03-25T06:08:07;96622.84;;;4.10;84.53
82171;BME280;71755;48.038;14.346;2024-03-25T06:10:41;96605.56;;;4.07;85.14
82171;BME280;71755;48.038;14.346;2024-03-25T06:13:07;96609.84;;;4.08;84.95
82171;BME280;71755;48.038;14.346;2024-03-25T06:15:33;96624.00;;;4.14;85.01
82171;BME280;71755;48.038;14.346;2024-03-25T06:17:59;96620.09;;;4.17;85.04
82171;BME280;71755;48.038;14.346;2024-03-25T06:20:25;96630.44;;;4.18;84.42
82171;BME280;71755;48.038;14.346;2024-03-25T06:22:52;96632.63;;;4.21;84.29
82171;BME280;71755;48.038;14.346;2024-03-25T06:25:18;96627.94;;;4.23;83.86
82171;BME280;71755;48.038;14.346;2024-03-25T06:27:44;96626.88;;;4.24;84.98
82171;BME280;71755;48.038;14.346;2024-03-25T06:30:10;96636.66;;;4.24;84.99
82171;BME280;71755;48.038;14.346;2024-03-25T06:32:55;96623.78;;;4.27;84.80
82171;BME280;71755;48.038;14.346;2024-03-25T06:35:39;96639.19;;;4.30;83.70
82171;BME280;71755;48.038;14.346;2024-03-25T06:38:05;96643.44;;;4.31;84.90
82171;BME280;71755;48.038;14.346;2024-03-25T06:40:32;96646.09;;;4.31;84.04
82171;BME280;71755;48.038;14.346;2024-03-25T06:42:57;96650.69;;;4.36;84.13
82171;BME280;71755;48.038;14.346;2024-03-25T06:45:23;96658.19;;;4.39;82.98
82171;BME280;71755;48.038;14.346;2024-03-25T06:47:49;96644.72;;;4.40;83.36
82171;BME280;71755;48.038;14.346;2024-03-25T06:50:15;96646.09;;;4.43;84.12
82171;BME280;71755;48.038;14.346;2024-03-25T06:52:41;96640.25;;;4.41;83.96
82171;BME280;71755;48.038;14.346;2024-03-25T06:55:07;96640.81;;;4.43;84.36
82171;BME280;71755;48.038;14.346;2024-03-25T06:57:34;96647.72;;;4.44;82.86
82171;BME280;71755;48.038;14.346;2024-03-25T07:00:00;96641.63;;;4.44;82.67
82171;BME280;71755;48.038;14.346;2024-03-25T07:02:26;96645.69;;;4.46;81.63
82171;BME280;71755;48.038;14.346;2024-03-25T07:04:51;96646.50;;;4.47;82.97
82171;BME280;71755;48.038;14.346;2024-03-25T07:07:17;96656.84;;;4.48;82.42
82171;BME280;71755;48.038;14.346;2024-03-25T07:09:42;96651.44;;;4.55;82.42
82171;BME280;71755;48.038;14.346;2024-03-25T07:12:08;96653.63;;;4.58;82.06
82171;BME280;71755;48.038;14.346;2024-03-25T07:14:34;96662.94;;;4.60;83.24
82171;BME280;71755;48.038;14.346;2024-03-25T07:17:00;96672.59;;;4.66;80.93
82171;BME280;71755;48.038;14.346;2024-03-25T07:19:27;96667.09;;;4.68;82.20
82171;BME280;71755;48.038;14.346;2024-03-25T07:21:52;96671.09;;;4.70;81.46
82171;BME280;71755;48.038;14.346;2024-03-25T07:24:18;96681.47;;;4.72;80.08
82171;BME280;71755;48.038;14.346;2024-03-25T07:26:45;96674.09;;;4.74;81.49
82171;BME280;71755;48.038;14.346;2024-03-25T07:29:12;96671.44;;;4.74;81.95
82171;BME280;71755;48.038;14.346;2024-03-25T07:31:37;96690.09;;;4.79;82.79
82171;BME280;71755;48.038;14.346;2024-03-25T07:34:03;96717.81;;;4.77;80.30
82171;BME280;71755;48.038;14.346;2024-03-25T07:36:29;96694.91;;;4.82;80.25
82171;BME280;71755;48.038;14.346;2024-03-25T07:38:59;96688.16;;;4.86;80.10
82171;BME280;71755;48.038;14.346;2024-03-25T07:41:25;96700.94;;;4.89;80.62
82171;BME280;71755;48.038;14.346;2024-03-25T07:43:51;96700.94;;;4.89;79.50
82171;BME280;71755;48.038;14.346;2024-03-25T07:46:17;96694.25;;;4.98;80.69
82171;BME280;71755;48.038;14.346;2024-03-25T07:48:43;96693.56;;;5.03;79.81
82171;BME280;71755;48.038;14.346;2024-03-25T07:51:09;96697.94;;;5.09;81.17
82171;BME280;71755;48.038;14.346;2024-03-25T07:53:34;96685.38;;;5.16;80.97
82171;BME280;71755;48.038;14.346;2024-03-25T07:56:00;96702.56;;;5.25;80.95
82171;BME280;71755;48.038;14.346;2024-03-25T07:58:26;96694.31;;;5.62;81.20
82171;BME280;71755;48.038;14.346;2024-03-25T08:00:52;96705.59;;;5.57;81.68
82171;BME280;71755;48.038;14.346;2024-03-25T08:03:17;96692.22;;;5.76;80.76
82171;BME280;71755;48.038;14.346;2024-03-25T08:05:43;96710.69;;;5.47;78.99
82171;BME280;71755;48.038;14.346;2024-03-25T08:08:09;96707.56;;;5.50;81.34
82171;BME280;71755;48.038;14.346;2024-03-25T08:10:37;96708.03;;;5.47;80.79
82171;BME280;71755;48.038;14.346;2024-03-25T08:13:03;96716.09;;;5.64;80.35
82171;BME280;71755;48.038;14.346;2024-03-25T08:15:29;96715.75;;;5.49;80.30
82171;BME280;71755;48.038;14.346;2024-03-25T08:17:55;96718.31;;;5.32;78.87
82171;BME280;71755;48.038;14.346;2024-03-25T08:20:21;96713.03;;;5.32;80.78
82171;BME280;71755;48.038;14.346;2024-03-25T08:22:48;96712.22;;;5.31;79.96
82171;BME280;71755;48.038;14.346;2024-03-25T08:25:14;96719.34;;;5.31;79.75
82171;BME280;71755;48.038;14.346;2024-03-25T08:27:40;96723.81;;;5.42;81.66
82171;BME280;71755;48.038;14.346;2024-03-25T08:30:07;96716.22;;;5.46;80.53
82171;BME280;71755;48.038;14.346;2024-03-25T08:32:32;96733.50;;;5.48;81.35
82171;BME280;71755;48.038;14.346;2024-03-25T08:34:58;96719.22;;;5.49;79.33
82171;BME280;71755;48.038;14.346;2024-03-25T08:37:24;96721.72;;;5.56;79.58
82171;BME280;71755;48.038;14.346;2024-03-25T08:39:50;96725.78;;;5.58;77.75
82171;BME280;71755;48.038;14.346;2024-03-25T08:42:16;96728.63;;;5.69;79.66
82171;BME280;71755;48.038;14.346;2024-03-25T08:44:41;96725.63;;;5.77;80.39
82171;BME280;71755;48.038;14.346;2024-03-25T08:47:07;96723.34;;;5.69;77.95
82171;BME280;71755;48.038;14.346;2024-03-25T08:49:33;96711.78;;;5.75;75.26
82171;BME280;71755;48.038;14.346;2024-03-25T08:51:58;96716.75;;;5.71;76.47
82171;BME280;71755;48.038;14.346;2024-03-25T08:54:24;96715.50;;;5.74;77.14
82171;BME280;71755;48.038;14.346;2024-03-25T08:56:50;96706.31;;;5.64;77.59
82171;BME280;71755;48.038;14.346;2024-03-25T08:59:16;96721.97;;;5.54;76.81
82171;BME280;71755;48.038;14.346;2024-03-25T09:01:41;96725.06;;;5.51;76.44
82171;BME280;71755;48.038;14.346;2024-03-25T09:04:07;96723.00;;;5.53;77.08
82171;BME280;71755;48.038;14.346;2024-03-25T09:06:33;96727.03;;;5.44;76.33
82171;BME280;71755;48.038;14.346;2024-03-25T09:08:59;96716.00;;;5.59;79.11
82171;BME280;71755;48.038;14.346;2024-03-25T09:11:43;96722.72;;;5.78;78.27
82171;BME280;71755;48.038;14.346;2024-03-25T09:14:09;96762.16;;;5.63;77.44
82171;BME280;71755;48.038;14.346;2024-03-25T09:16:34;96742.00;;;5.50;77.69
82171;BME280;71755;48.038;14.346;2024-03-25T09:19:00;96732.00;;;5.41;77.97
82171;BME280;71755;48.038;14.346;2024-03-25T09:21:26;96721.97;;;5.54;78.18
82171;BME280;71755;48.038;14.346;2024-03-25T09:23:52;96738.44;;;5.56;79.08
82171;BME280;71755;48.038;14.346;2024-03-25T09:26:18;96740.88;;;5.58;79.63
82171;BME280;71755;48.038;14.346;2024-03-25T09:28:44;96743.88;;;5.61;77.13
82171;BME280;71755;48.038;14.346;2024-03-25T09:31:10;96727.22;;;6.01;77.98
82171;BME280;71755;48.038;14.346;2024-03-25T09:33:35;96724.44;;;6.53;78.06
82171;BME280;71755;48.038;14.346;2024-03-25T09:36:01;96728.78;;;6.59;75.00
82171;BME280;71755;48.038;14.346;2024-03-25T09:38:27;96738.75;;;6.52;74.57
82171;BME280;71755;48.038;14.346;2024-03-25T09:40:53;96733.06;;;6.60;75.02
82171;BME280;71755;48.038;14.346;2024-03-25T09:43:24;96710.31;;;6.98;75.65
82171;BME280;71755;48.038;14.346;2024-03-25T09:45:51;96730.84;;;6.85;75.80
82171;BME280;71755;48.038;14.346;2024-03-25T09:48:19;96728.50;;;6.72;75.28
82171;BME280;71755;48.038;14.346;2024-03-25T09:50:47;96719.03;;;6.76;75.83
82171;BME280;71755;48.038;14.346;2024-03-25T09:53:14;96718.44;;;6.91;73.94
82171;BME280;71755;48.038;14.346;2024-03-25T09:55:40;96722.81;;;6.35;73.09
82171;BME280;71755;48.038;14.346;2024-03-25T09:58:06;96744.13;;;6.12;74.93
82171;BME280;71755;48.038;14.346;2024-03-25T10:00:32;96708.69;;;6.18;73.58
82171;BME280;71755;48.038;14.346;2024-03-25T10:02:58;96719.81;;;6.32;74.47
82171;BME280;71755;48.038;14.346;2024-03-25T10:05:25;96727.50;;;6.45;70.62
82171;BME280;71755;48.038;14.346;2024-03-25T10:07:50;96710.34;;;6.36;70.88
82171;BME280;71755;48.038;14.346;2024-03-25T10:10:22;96707.81;;;6.57;70.00
82171;BME280;71755;48.038;14.346;2024-03-25T10:12:48;96712.03;;;6.70;69.71
82171;BME280;71755;48.038;14.346;2024-03-25T10:15:17;96695.91;;;6.94;70.89
82171;BME280;71755;48.038;14.346;2024-03-25T10:17:43;96695.81;;;7.05;69.06
82171;BME280;71755;48.038;14.346;2024-03-25T10:20:16;96699.38;;;6.61;67.59
82171;BME280;71755;48.038;14.346;2024-03-25T10:22:43;96698.16;;;6.68;69.69
82171;BME280;71755;48.038;14.346;2024-03-25T10:25:26;96694.00;;;6.72;69.30
82171;BME280;71755;48.038;14.346;2024-03-25T10:28:00;96701.28;;;6.65;68.34
82171;BME280;71755;48.038;14.346;2024-03-25T10:30:29;96696.56;;;6.84;70.23
82171;BME280;71755;48.038;14.346;2024-03-25T10:35:32;96697.63;;;6.83;70.48
82171;BME280;71755;48.038;14.346;2024-03-25T10:40:30;96687.81;;;6.83;66.47
82171;BME280;71755;48.038;14.346;2024-03-25T10:43:07;96690.22;;;7.40;68.34
82171;BME280;71755;48.038;14.346;2024-03-25T10:45:36;96692.88;;;7.40;66.62
82171;BME280;71755;48.038;14.346;2024-03-25T10:48:31;96683.63;;;6.87;67.32
82171;BME280;71755;48.038;14.346;2024-03-25T10:50:59;96682.81;;;6.70;68.26
82171;BME280;71755;48.038;14.346;2024-03-25T10:53:27;96703.91;;;6.77;68.19
82171;BME280;71755;48.038;14.346;2024-03-25T10:55:54;96692.78;;;6.18;69.19
82171;BME280;71755;48.038;14.346;2024-03-25T10:58:24;96709.47;;;6.02;72.28
82171;BME280;71755;48.038;14.346;2024-03-25T11:00:52;96682.97;;;5.90;74.53
82171;BME280;71755;48.038;14.346;2024-03-25T11:03:23;96676.16;;;5.94;72.62
82171;BME280;71755;48.038;14.346;2024-03-25T11:05:50;96675.88;;;6.07;73.82
82171;BME280;71755;48.038;14.346;2024-03-25T11:08:17;96676.84;;;6.01;74.46
82171;BME280;71755;48.038;14.346;2024-03-25T11:10:44;96672.38;;;5.90;75.17
82171;BME280;71755;48.038;14.346;2024-03-25T11:13:21;96675.97;;;6.12;75.16
82171;BME280;71755;48.038;14.346;2024-03-25T11:15:50;96666.22;;;6.46;76.75
82171;BME280;71755;48.038;14.346;2024-03-25T11:18:18;96658.34;;;7.02;73.81
82171;BME280;71755;48.038;14.346;2024-03-25T11:21:02;96652.63;;;7.48;71.54
82171;BME280;71755;48.038;14.346;2024-03-25T11:23:43;96651.03;;;7.96;71.69
82171;BME280;71755;48.038;14.346;2024-03-25T11:26:21;96640.84;;;8.37;69.85
82171;BME280;71755;48.038;14.346;2024-03-25T11:28:53;96635.44;;;8.59;66.48
82171;BME280;71755;48.038;14.346;2024-03-25T11:31:25;96626.16;;;8.61;67.14
82171;BME280;71755;48.038;14.346;2024-03-25T11:33:51;96627.09;;;8.50;64.08
82171;BME280;71755;48.038;14.346;2024-03-25T11:36:18;96621.50;;;7.93;63.56
82171;BME280;71755;48.038;14.346;2024-03-25T11:38:45;96625.91;;;7.60;67.55
82171;BME280;71755;48.038;14.346;2024-03-25T11:41:12;96629.06;;;7.57;64.34
82171;BME280;71755;48.038;14.346;2024-03-25T11:43:39;96625.78;;;7.50;64.09
82171;BME280;71755;48.038;14.346;2024-03-25T11:46:05;96617.88;;;7.55;65.31
82171;BME280;71755;48.038;14.346;2024-03-25T11:48:34;96616.78;;;7.78;63.50
82171;BME280;71755;48.038;14.346;2024-03-25T11:51:00;96611.75;;;8.57;64.49
82171;BME280;71755;48.038;14.346;2024-03-25T11:53:26;96597.00;;;9.29;64.22
82171;BME280;71755;48.038;14.346;2024-03-25T11:55:53;96600.50;;;9.34;63.62
82171;BME280;71755;48.038;14.346;2024-03-25T11:58:19;96590.34;;;10.19;61.53
82171;BME280;71755;48.038;14.346;2024-03-25T12:00:46;96589.34;;;9.48;60.28
82171;BME280;71755;48.038;14.346;2024-03-25T12:03:16;96594.50;;;9.07;61.36
82171;BME280;71755;48.038;14.346;2024-03-25T12:05:45;96592.19;;;8.41;59.97
82171;BME280;71755;48.038;14.346;2024-03-25T12:08:11;96585.50;;;8.12;60.62
82171;BME280;71755;48.038;14.346;2024-03-25T12:10:39;96583.25;;;8.26;61.07
82171;BME280;71755;48.038;14.346;2024-03-25T12:13:23;96589.47;;;8.36;62.28
82171;BME280;71755;48.038;14.346;2024-03-25T12:15:50;96583.69;;;8.82;62.61
82171;BME280;71755;48.038;14.346;2024-03-25T12:18:17;96590.25;;;9.11;58.89
82171;BME280;71755;48.038;14.346;2024-03-25T12:20:48;96562.06;;;10.18;57.12
82171;BME280;71755;48.038;14.346;2024-03-25T12:23:14;96556.47;;;10.30;56.96
82171;BME280;71755;48.038;14.346;2024-03-25T12:25:40;96550.03;;;10.92;57.01
82171;BME280;71755;48.038;14.346;2024-03-25T12:28:09;96542.94;;;11.32;55.62
82171;BME280;71755;48.038;14.346;2024-03-25T12:30:55;96542.66;;;11.33;54.08
82171;BME280;71755;48.038;14.346;2024-03-25T12:33:24;96537.44;;;11.67;55.35
82171;BME280;71755;48.038;14.346;2024-03-25T12:35:51;96534.69;;;12.27;53.22
82171;BME280;71755;48.038;14.346;2024-03-25T12:40:49;96553.00;;;10.40;51.30
82171;BME280;71755;48.038;14.346;2024-03-25T12:43:18;96544.72;;;10.72;54.36
82171;BME280;71755;48.038;14.346;2024-03-25T12:45:44;96542.16;;;11.31;55.64
82171;BME280;71755;48.038;14.346;2024-03-25T12:48:10;96544.72;;;10.72;50.50
82171;BME280;71755;48.038;14.346;2024-03-25T12:50:37;96541.50;;;10.14;52.35
82171;BME280;71755;48.038;14.346;2024-03-25T12:53:04;96529.19;;;10.89;49.37
82171;BME280;71755;48.038;14.346;2024-03-25T12:55:30;96542.56;;;10.84;46.80
82171;BME280;71755;48.038;14.346;2024-03-25T12:57:56;96523.91;;;10.58;49.52
82171;BME280;71755;48.038;14.346;2024-03-25T13:00:22;96521.59;;;11.21;45.78
82171;BME280;71755;48.038;14.346;2024-03-25T13:02:48;96512.47;;;11.33;47.13
82171;BME280;71755;48.038;14.346;2024-03-25T13:05:14;96519.34;;;11.44;51.48
82171;BME280;71755;48.038;14.346;2024-03-25T13:07:40;96514.78;;;10.80;46.72